sensor_id;sensor_type;location;lat;lon;timestamp;P1;durP1;ratioP1;P2;durP2;ratioP2
15002;SDS011;7597;53.590;10.020;2022-10-16T00:01:31;8.45;;;7.50;;
15002;SDS011;7597;53.590;10.020;2022-10-16T00:03:59;8.60;;;7.10;;
15002;SDS011;7597;53.590;10.020;2022-10-16T00:06:25;7.28;;;6.55;;
15002;SDS011;7597;53.590;10.020;2022-10-16T00:08:51;8.88;;;6.30;;
15002;SDS011;7597;53.590;10.020;2022-10-16T00:11:20;8.90;;;6.65;;
15002;SDS011;7597;53.590;10.020;2022-10-16T00:13:46;7.85;;;6.30;;
15002;SDS011;7597;53.590;10.020;2022-10-16T00:16:12;6.18;;;5.37;;
15002;SDS011;7597;53.590;10.020;2022-10-16T00:18:39;8.68;;;5.60;;
15002;SDS011;7597;53.590;10.020;2022-10-16T00:21:07;7.60;;;5.82;;
15002;SDS011;7597;53.590;10.020;2022-10-16T00:23:32;7.05;;;4.95;;
15002;SDS011;7597;53.590;10.020;2022-10-16T00:26:00;6.22;;;4.57;;
15002;SDS011;7597;53.590;10.020;2022-10-16T00:28:26;8.02;;;4.32;;
15002;SDS011;7597;53.590;10.020;2022-10-16T00:30:53;5.80;;;4.25;;
15002;SDS011;7597;53.590;10.020;2022-10-16T00:33:20;8.75;;;4.22;;
15002;SDS011;7597;53.590;10.020;2022-10-16T00:35:47;5.90;;;3.50;;
15002;SDS011;7597;53.590;10.020;2022-10-16T00:38:14;5.35;;;3.35;;
15002;SDS011;7597;53.590;10.020;2022-10-16T00:40:40;5.80;;;3.30;;
15002;SDS011;7597;53.590;10.020;2022-10-16T00:43:11;6.55;;;3.45;;
15002;SDS011;7597;53.590;10.020;2022-10-16T00:45:39;3.45;;;2.65;;
15002;SDS011;7597;53.590;10.020;2022-10-16T00:48:06;5.45;;;3.22;;
15002;SDS011;7597;53.590;10.020;2022-10-16T00:50:33;4.43;;;2.95;;
15002;SDS011;7597;53.590;10.020;2022-10-16T00:53:00;5.00;;;2.78;;
15002;SDS011;7597;53.590;10.020;2022-10-16T00:55:26;5.93;;;3.08;;
15002;SDS011;7597;53.590;10.020;2022-10-16T00:57:53;4.65;;;2.78;;
15002;SDS011;7597;53.590;10.020;2022-10-16T01:00:20;5.15;;;2.58;;
15002;SDS011;7597;53.590;10.020;2022-10-16T01:05:19;3.85;;;2.65;;
15002;SDS011;7597;53.590;10.020;2022-10-16T01:07:48;5.60;;;2.53;;
15002;SDS011;7597;53.590;10.020;2022-10-16T01:13:21;3.15;;;2.08;;
15002;SDS011;7597;53.590;10.020;2022-10-16T01:15:48;3.40;;;2.35;;
15002;SDS011;7597;53.590;10.020;2022-10-16T01:20:59;4.72;;;2.67;;
15002;SDS011;7597;53.590;10.020;2022-10-16T01:23:27;4.62;;;2.50;;
15002;SDS011;7597;53.590;10.020;2022-10-16T01:25:58;2.42;;;2.20;;
15002;SDS011;7597;53.590;10.020;2022-10-16T01:28:21;6.03;;;2.50;;
15002;SDS011;7597;53.590;10.020;2022-10-16T01:30:47;5.90;;;2.47;;
15002;SDS011;7597;53.590;10.020;2022-10-16T01:33:16;5.32;;;2.40;;
15002;SDS011;7597;53.590;10.020;2022-10-16T01:35:42;5.78;;;2.50;;
15002;SDS011;7597;53.590;10.020;2022-10-16T01:38:10;3.37;;;2.30;;
15002;SDS011;7597;53.590;10.020;2022-10-16T01:40:36;4.43;;;2.37;;
15002;SDS011;7597;53.590;10.020;2022-10-16T01:43:04;3.78;;;2.28;;
15002;SDS011;7597;53.590;10.020;2022-10-16T01:45:29;4.22;;;2.20;;
15002;SDS011;7597;53.590;10.020;2022-10-16T01:47:56;4.93;;;2.12;;
15002;SDS011;7597;53.590;10.020;2022-10-16T01:50:23;6.28;;;2.37;;
15002;SDS011;7597;53.590;10.020;2022-10-16T01:52:50;2.33;;;2.10;;
15002;SDS011;7597;53.590;10.020;2022-10-16T01:55:18;3.58;;;2.22;;
15002;SDS011;7597;53.590;10.020;2022-10-16T01:57:44;4.40;;;2.30;;
15002;SDS011;7597;53.590;10.020;2022-10-16T02:00:10;3.60;;;2.20;;
15002;SDS011;7597;53.590;10.020;2022-10-16T02:02:38;2.55;;;1.98;;
15002;SDS011;7597;53.590;10.020;2022-10-16T02:05:06;5.37;;;2.20;;
15002;SDS011;7597;53.590;10.020;2022-10-16T02:07:31;2.58;;;2.37;;
15002;SDS011;7597;53.590;10.020;2022-10-16T02:09:59;4.95;;;2.28;;
15002;SDS011;7597;53.590;10.020;2022-10-16T02:12:26;3.50;;;2.58;;
15002;SDS011;7597;53.590;10.020;2022-10-16T02:14:52;2.65;;;2.40;;
15002;SDS011;7597;53.590;10.020;2022-10-16T02:17:19;4.20;;;2.65;;
15002;SDS011;7597;53.590;10.020;2022-10-16T02:19:46;4.43;;;2.15;;
15002;SDS011;7597;53.590;10.020;2022-10-16T02:22:15;4.22;;;2.42;;
15002;SDS011;7597;53.590;10.020;2022-10-16T02:24:47;4.20;;;2.28;;
15002;SDS011;7597;53.590;10.020;2022-10-16T02:30:07;3.85;;;2.42;;
15002;SDS011;7597;53.590;10.020;2022-10-16T02:32:36;3.65;;;2.20;;
15002;SDS011;7597;53.590;10.020;2022-10-16T02:35:01;2.60;;;2.08;;
15002;SDS011;7597;53.590;10.020;2022-10-16T02:37:28;3.10;;;2.20;;
15002;SDS011;7597;53.590;10.020;2022-10-16T02:39:55;3.03;;;2.42;;
15002;SDS011;7597;53.590;10.020;2022-10-16T02:42:26;5.62;;;2.67;;
15002;SDS011;7597;53.590;10.020;2022-10-16T02:44:48;5.57;;;2.10;;
15002;SDS011;7597;53.590;10.020;2022-10-16T02:47:15;2.17;;;1.80;;
15002;SDS011;7597;53.590;10.020;2022-10-16T02:49:41;3.70;;;2.08;;
15002;SDS011;7597;53.590;10.020;2022-10-16T02:52:08;5.25;;;2.25;;
15002;SDS011;7597;53.590;10.020;2022-10-16T02:54:35;5.82;;;1.95;;
15002;SDS011;7597;53.590;10.020;2022-10-16T02:57:01;2.45;;;2.25;;
15002;SDS011;7597;53.590;10.020;2022-10-16T02:59:28;6.07;;;2.30;;
15002;SDS011;7597;53.590;10.020;2022-10-16T03:01:55;2.95;;;1.98;;
15002;SDS011;7597;53.590;10.020;2022-10-16T03:04:21;8.02;;;2.35;;
15002;SDS011;7597;53.590;10.020;2022-10-16T03:06:48;4.72;;;2.03;;
15002;SDS011;7597;53.590;10.020;2022-10-16T03:09:15;4.55;;;1.90;;
15002;SDS011;7597;53.590;10.020;2022-10-16T03:11:41;3.62;;;2.15;;
15002;SDS011;7597;53.590;10.020;2022-10-16T03:14:08;4.87;;;2.33;;
15002;SDS011;7597;53.590;10.020;2022-10-16T03:16:35;3.92;;;2.40;;
15002;SDS011;7597;53.590;10.020;2022-10-16T03:19:02;3.65;;;2.28;;
15002;SDS011;7597;53.590;10.020;2022-10-16T03:21:29;3.50;;;2.10;;
15002;SDS011;7597;53.590;10.020;2022-10-16T03:23:55;4.57;;;2.30;;
15002;SDS011;7597;53.590;10.020;2022-10-16T03:26:23;4.65;;;2.30;;
15002;SDS011;7597;53.590;10.020;2022-10-16T03:28:49;3.12;;;2.20;;
15002;SDS011;7597;53.590;10.020;2022-10-16T03:31:16;10.75;;;2.37;;
15002;SDS011;7597;53.590;10.020;2022-10-16T03:33:43;5.05;;;2.00;;
15002;SDS011;7597;53.590;10.020;2022-10-16T03:36:09;2.83;;;1.92;;
15002;SDS011;7597;53.590;10.020;2022-10-16T03:38:36;5.65;;;1.87;;
15002;SDS011;7597;53.590;10.020;2022-10-16T03:41:03;3.47;;;1.80;;
15002;SDS011;7597;53.590;10.020;2022-10-16T03:43:29;6.40;;;2.10;;
15002;SDS011;7597;53.590;10.020;2022-10-16T03:45:56;2.67;;;2.10;;
15002;SDS011;7597;53.590;10.020;2022-10-16T03:48:23;3.20;;;2.08;;
15002;SDS011;7597;53.590;10.020;2022-10-16T03:50:49;4.25;;;1.87;;
15002;SDS011;7597;53.590;10.020;2022-10-16T03:53:16;3.75;;;2.30;;
15002;SDS011;7597;53.590;10.020;2022-10-16T03:55:43;7.65;;;2.30;;
15002;SDS011;7597;53.590;10.020;2022-10-16T03:58:10;4.53;;;2.00;;
15002;SDS011;7597;53.590;10.020;2022-10-16T04:00:39;2.12;;;1.92;;
15002;SDS011;7597;53.590;10.020;2022-10-16T04:03:05;6.05;;;2.22;;
15002;SDS011;7597;53.590;10.020;2022-10-16T04:05:32;4.40;;;2.22;;
15002;SDS011;7597;53.590;10.020;2022-10-16T04:07:59;5.20;;;2.08;;
15002;SDS011;7597;53.590;10.020;2022-10-16T04:10:25;2.92;;;2.03;;
15002;SDS011;7597;53.590;10.020;2022-10-16T04:12:52;3.92;;;1.77;;
15002;SDS011;7597;53.590;10.020;2022-10-16T04:15:18;3.87;;;2.20;;
15002;SDS011;7597;53.590;10.020;2022-10-16T04:17:45;2.47;;;1.70;;
15002;SDS011;7597;53.590;10.020;2022-10-16T04:20:12;3.22;;;2.05;;
15002;SDS011;7597;53.590;10.020;2022-10-16T04:22:38;6.07;;;2.45;;
15002;SDS011;7597;53.590;10.020;2022-10-16T04:25:05;2.95;;;2.03;;
15002;SDS011;7597;53.590;10.020;2022-10-16T04:27:32;3.28;;;2.37;;
15002;SDS011;7597;53.590;10.020;2022-10-16T04:29:59;3.28;;;2.00;;
15002;SDS011;7597;53.590;10.020;2022-10-16T04:32:25;3.10;;;2.05;;
15002;SDS011;7597;53.590;10.020;2022-10-16T04:34:52;2.47;;;2.10;;
15002;SDS011;7597;53.590;10.020;2022-10-16T04:37:19;4.62;;;2.30;;
15002;SDS011;7597;53.590;10.020;2022-10-16T04:39:45;3.33;;;2.42;;
15002;SDS011;7597;53.590;10.020;2022-10-16T04:42:12;3.58;;;2.12;;
15002;SDS011;7597;53.590;10.020;2022-10-16T04:44:38;3.30;;;2.00;;
15002;SDS011;7597;53.590;10.020;2022-10-16T04:47:05;5.93;;;2.33;;
15002;SDS011;7597;53.590;10.020;2022-10-16T04:49:32;3.53;;;2.10;;
15002;SDS011;7597;53.590;10.020;2022-10-16T04:51:58;3.60;;;2.20;;
15002;SDS011;7597;53.590;10.020;2022-10-16T04:54:25;2.65;;;2.03;;
15002;SDS011;7597;53.590;10.020;2022-10-16T04:56:51;4.45;;;2.50;;
15002;SDS011;7597;53.590;10.020;2022-10-16T04:59:18;5.68;;;2.47;;
15002;SDS011;7597;53.590;10.020;2022-10-16T05:01:45;4.30;;;2.55;;
15002;SDS011;7597;53.590;10.020;2022-10-16T05:04:11;2.83;;;2.37;;
15002;SDS011;7597;53.590;10.020;2022-10-16T05:06:38;4.95;;;2.55;;
15002;SDS011;7597;53.590;10.020;2022-10-16T05:09:06;5.18;;;2.75;;
15002;SDS011;7597;53.590;10.020;2022-10-16T05:11:32;4.43;;;2.65;;
15002;SDS011;7597;53.590;10.020;2022-10-16T05:13:59;2.78;;;2.50;;
15002;SDS011;7597;53.590;10.020;2022-10-16T05:16:26;5.70;;;2.60;;
15002;SDS011;7597;53.590;10.020;2022-10-16T05:18:52;5.53;;;2.92;;
15002;SDS011;7597;53.590;10.020;2022-10-16T05:21:19;6.03;;;3.08;;
15002;SDS011;7597;53.590;10.020;2022-10-16T05:23:46;2.72;;;2.45;;
15002;SDS011;7597;53.590;10.020;2022-10-16T05:26:12;4.35;;;2.90;;
15002;SDS011;7597;53.590;10.020;2022-10-16T05:28:39;5.07;;;3.10;;
15002;SDS011;7597;53.590;10.020;2022-10-16T05:31:06;7.05;;;3.08;;
15002;SDS011;7597;53.590;10.020;2022-10-16T05:33:32;4.10;;;2.87;;
15002;SDS011;7597;53.590;10.020;2022-10-16T05:36:02;6.12;;;3.03;;
15002;SDS011;7597;53.590;10.020;2022-10-16T05:38:28;7.60;;;2.83;;
15002;SDS011;7597;53.590;10.020;2022-10-16T05:40:55;5.20;;;2.60;;
15002;SDS011;7597;53.590;10.020;2022-10-16T05:43:21;6.55;;;3.35;;
15002;SDS011;7597;53.590;10.020;2022-10-16T05:45:55;5.05;;;2.58;;
15002;SDS011;7597;53.590;10.020;2022-10-16T05:48:20;6.78;;;2.92;;
15002;SDS011;7597;53.590;10.020;2022-10-16T05:50:47;3.55;;;2.45;;
15002;SDS011;7597;53.590;10.020;2022-10-16T05:53:14;4.82;;;3.28;;
15002;SDS011;7597;53.590;10.020;2022-10-16T05:55:40;4.00;;;2.37;;
15002;SDS011;7597;53.590;10.020;2022-10-16T05:58:07;4.12;;;2.42;;
15002;SDS011;7597;53.590;10.020;2022-10-16T06:00:34;3.75;;;2.60;;
15002;SDS011;7597;53.590;10.020;2022-10-16T06:03:00;2.33;;;2.12;;
15002;SDS011;7597;53.590;10.020;2022-10-16T06:05:27;4.07;;;2.45;;
15002;SDS011;7597;53.590;10.020;2022-10-16T06:07:53;6.12;;;2.75;;
15002;SDS011;7597;53.590;10.020;2022-10-16T06:10:20;5.50;;;2.53;;
15002;SDS011;7597;53.590;10.020;2022-10-16T06:12:47;5.78;;;2.55;;
15002;SDS011;7597;53.590;10.020;2022-10-16T06:15:13;6.22;;;2.70;;
15002;SDS011;7597;53.590;10.020;2022-10-16T06:17:40;4.90;;;2.55;;
15002;SDS011;7597;53.590;10.020;2022-10-16T06:20:07;4.07;;;2.60;;
15002;SDS011;7597;53.590;10.020;2022-10-16T06:22:34;2.78;;;2.17;;
15002;SDS011;7597;53.590;10.020;2022-10-16T06:25:01;4.15;;;2.55;;
15002;SDS011;7597;53.590;10.020;2022-10-16T06:27:27;2.53;;;2.33;;
15002;SDS011;7597;53.590;10.020;2022-10-16T06:29:54;3.47;;;2.10;;
15002;SDS011;7597;53.590;10.020;2022-10-16T06:32:20;3.90;;;2.33;;
15002;SDS011;7597;53.590;10.020;2022-10-16T06:34:47;3.22;;;2.30;;
15002;SDS011;7597;53.590;10.020;2022-10-16T06:37:14;6.15;;;2.37;;
15002;SDS011;7597;53.590;10.020;2022-10-16T06:39:40;4.60;;;2.33;;
15002;SDS011;7597;53.590;10.020;2022-10-16T06:42:08;3.40;;;2.37;;
15002;SDS011;7597;53.590;10.020;2022-10-16T06:44:34;5.22;;;2.42;;
15002;SDS011;7597;53.590;10.020;2022-10-16T06:47:01;3.97;;;2.42;;
15002;SDS011;7597;53.590;10.020;2022-10-16T06:49:28;7.28;;;2.45;;
15002;SDS011;7597;53.590;10.020;2022-10-16T06:51:54;2.92;;;2.35;;
15002;SDS011;7597;53.590;10.020;2022-10-16T06:54:21;4.43;;;2.42;;
15002;SDS011;7597;53.590;10.020;2022-10-16T06:56:48;4.78;;;2.60;;
15002;SDS011;7597;53.590;10.020;2022-10-16T06:59:14;2.58;;;2.22;;
15002;SDS011;7597;53.590;10.020;2022-10-16T07:01:41;3.00;;;2.30;;
15002;SDS011;7597;53.590;10.020;2022-10-16T07:04:08;5.05;;;2.20;;
15002;SDS011;7597;53.590;10.020;2022-10-16T07:06:34;2.95;;;2.35;;
15002;SDS011;7597;53.590;10.020;2022-10-16T07:09:03;3.15;;;2.33;;
15002;SDS011;7597;53.590;10.020;2022-10-16T07:11:29;3.80;;;2.33;;
15002;SDS011;7597;53.590;10.020;2022-10-16T07:13:56;2.70;;;2.28;;
15002;SDS011;7597;53.590;10.020;2022-10-16T07:16:24;3.85;;;2.42;;
15002;SDS011;7597;53.590;10.020;2022-10-16T07:18:49;2.85;;;2.30;;
15002;SDS011;7597;53.590;10.020;2022-10-16T07:21:17;3.90;;;2.50;;
15002;SDS011;7597;53.590;10.020;2022-10-16T07:23:43;2.85;;;2.55;;
15002;SDS011;7597;53.590;10.020;2022-10-16T07:26:10;4.03;;;2.53;;
15002;SDS011;7597;53.590;10.020;2022-10-16T07:28:37;3.15;;;2.83;;
15002;SDS011;7597;53.590;10.020;2022-10-16T07:31:05;5.97;;;3.05;;
15002;SDS011;7597;53.590;10.020;2022-10-16T07:33:31;4.18;;;2.75;;
15002;SDS011;7597;53.590;10.020;2022-10-16T07:35:57;2.78;;;2.37;;
15002;SDS011;7597;53.590;10.020;2022-10-16T07:38:23;4.03;;;3.25;;
15002;SDS011;7597;53.590;10.020;2022-10-16T07:40:56;4.65;;;2.72;;
15002;SDS011;7597;53.590;10.020;2022-10-16T07:43:22;3.60;;;2.60;;
15002;SDS011;7597;53.590;10.020;2022-10-16T07:45:50;5.25;;;2.87;;
15002;SDS011;7597;53.590;10.020;2022-10-16T07:48:16;4.00;;;2.47;;
15002;SDS011;7597;53.590;10.020;2022-10-16T07:50:43;3.47;;;2.37;;
15002;SDS011;7597;53.590;10.020;2022-10-16T07:53:10;2.50;;;2.30;;
15002;SDS011;7597;53.590;10.020;2022-10-16T07:55:36;5.07;;;2.30;;
15002;SDS011;7597;53.590;10.020;2022-10-16T07:58:03;3.10;;;2.50;;
15002;SDS011;7597;53.590;10.020;2022-10-16T08:00:30;3.45;;;2.50;;
15002;SDS011;7597;53.590;10.020;2022-10-16T08:02:57;4.00;;;2.50;;
15002;SDS011;7597;53.590;10.020;2022-10-16T08:05:23;3.37;;;2.45;;
15002;SDS011;7597;53.590;10.020;2022-10-16T08:07:50;4.75;;;2.80;;
15002;SDS011;7597;53.590;10.020;2022-10-16T08:10:17;6.55;;;2.67;;
15002;SDS011;7597;53.590;10.020;2022-10-16T08:12:43;4.37;;;2.80;;
15002;SDS011;7597;53.590;10.020;2022-10-16T08:15:10;2.80;;;2.60;;
15002;SDS011;7597;53.590;10.020;2022-10-16T08:17:36;4.65;;;2.80;;
15002;SDS011;7597;53.590;10.020;2022-10-16T08:20:03;3.50;;;2.60;;
15002;SDS011;7597;53.590;10.020;2022-10-16T08:22:30;2.85;;;2.40;;
15002;SDS011;7597;53.590;10.020;2022-10-16T08:24:57;3.62;;;2.30;;
15002;SDS011;7597;53.590;10.020;2022-10-16T08:27:23;3.70;;;2.67;;
15002;SDS011;7597;53.590;10.020;2022-10-16T08:29:50;4.12;;;2.80;;
15002;SDS011;7597;53.590;10.020;2022-10-16T08:32:17;4.25;;;2.75;;
15002;SDS011;7597;53.590;10.020;2022-10-16T08:34:43;3.65;;;2.45;;
15002;SDS011;7597;53.590;10.020;2022-10-16T08:37:10;5.28;;;2.40;;
15002;SDS011;7597;53.590;10.020;2022-10-16T08:39:37;5.00;;;2.40;;
15002;SDS011;7597;53.590;10.020;2022-10-16T08:47:45;4.10;;;2.45;;
15002;SDS011;7597;53.590;10.020;2022-10-16T08:50:12;3.37;;;2.30;;
15002;SDS011;7597;53.590;10.020;2022-10-16T08:52:39;3.30;;;2.33;;
15002;SDS011;7597;53.590;10.020;2022-10-16T08:55:05;4.90;;;2.33;;
15002;SDS011;7597;53.590;10.020;2022-10-16T08:57:32;5.72;;;2.50;;
15002;SDS011;7597;53.590;10.020;2022-10-16T09:00:00;2.95;;;2.40;;
15002;SDS011;7597;53.590;10.020;2022-10-16T09:02:31;7.93;;;2.72;;
15002;SDS011;7597;53.590;10.020;2022-10-16T09:05:22;5.18;;;2.40;;
15002;SDS011;7597;53.590;10.020;2022-10-16T09:08:01;4.95;;;2.20;;
15002;SDS011;7597;53.590;10.020;2022-10-16T09:10:29;2.50;;;2.00;;
15002;SDS011;7597;53.590;10.020;2022-10-16T09:13:17;6.72;;;2.67;;
15002;SDS011;7597;53.590;10.020;2022-10-16T09:15:46;2.35;;;2.10;;
15002;SDS011;7597;53.590;10.020;2022-10-16T09:18:23;4.07;;;1.92;;
15002;SDS011;7597;53.590;10.020;2022-10-16T09:20:51;2.78;;;2.10;;
15002;SDS011;7597;53.590;10.020;2022-10-16T09:23:21;2.47;;;2.12;;
15002;SDS011;7597;53.590;10.020;2022-10-16T09:25:54;3.62;;;1.62;;
15002;SDS011;7597;53.590;10.020;2022-10-16T09:28:21;5.50;;;2.60;;
15002;SDS011;7597;53.590;10.020;2022-10-16T09:30:47;2.05;;;1.90;;
15002;SDS011;7597;53.590;10.020;2022-10-16T09:33:14;3.10;;;1.87;;
15002;SDS011;7597;53.590;10.020;2022-10-16T09:35:42;2.28;;;1.80;;
15002;SDS011;7597;53.590;10.020;2022-10-16T09:38:08;4.78;;;1.92;;
15002;SDS011;7597;53.590;10.020;2022-10-16T09:40:36;3.17;;;1.65;;
15002;SDS011;7597;53.590;10.020;2022-10-16T09:45:34;2.70;;;1.65;;
15002;SDS011;7597;53.590;10.020;2022-10-16T09:48:01;3.20;;;2.00;;
15002;SDS011;7597;53.590;10.020;2022-10-16T09:50:28;3.75;;;2.15;;
15002;SDS011;7597;53.590;10.020;2022-10-16T09:53:05;5.10;;;2.05;;
15002;SDS011;7597;53.590;10.020;2022-10-16T09:55:47;4.30;;;1.80;;
15002;SDS011;7597;53.590;10.020;2022-10-16T09:58:13;3.75;;;1.70;;
15002;SDS011;7597;53.590;10.020;2022-10-16T10:00:41;3.60;;;1.87;;
15002;SDS011;7597;53.590;10.020;2022-10-16T10:03:10;2.42;;;1.50;;
15002;SDS011;7597;53.590;10.020;2022-10-16T10:05:35;2.47;;;1.58;;
15002;SDS011;7597;53.590;10.020;2022-10-16T10:08:02;3.12;;;1.60;;
15002;SDS011;7597;53.590;10.020;2022-10-16T10:10:30;4.00;;;1.87;;
15002;SDS011;7597;53.590;10.020;2022-10-16T10:12:56;3.70;;;1.90;;
15002;SDS011;7597;53.590;10.020;2022-10-16T10:15:24;3.80;;;1.70;;
15002;SDS011;7597;53.590;10.020;2022-10-16T10:17:54;1.77;;;1.67;;
15002;SDS011;7597;53.590;10.020;2022-10-16T10:20:26;3.50;;;2.03;;
15002;SDS011;7597;53.590;10.020;2022-10-16T10:22:52;3.70;;;2.00;;
15002;SDS011;7597;53.590;10.020;2022-10-16T10:25:26;3.25;;;1.83;;
15002;SDS011;7597;53.590;10.020;2022-10-16T10:28:00;3.58;;;2.10;;
15002;SDS011;7597;53.590;10.020;2022-10-16T10:31:54;4.53;;;1.90;;
15002;SDS011;7597;53.590;10.020;2022-10-16T10:36:14;3.20;;;1.87;;
15002;SDS011;7597;53.590;10.020;2022-10-16T10:38:46;5.62;;;2.08;;
15002;SDS011;7597;53.590;10.020;2022-10-16T10:41:30;6.93;;;2.05;;
15002;SDS011;7597;53.590;10.020;2022-10-16T10:43:56;2.92;;;1.60;;
15002;SDS011;7597;53.590;10.020;2022-10-16T10:46:32;4.18;;;1.70;;
15002;SDS011;7597;53.590;10.020;2022-10-16T10:49:09;3.17;;;1.90;;
15002;SDS011;7597;53.590;10.020;2022-10-16T10:51:43;2.25;;;1.40;;
15002;SDS011;7597;53.590;10.020;2022-10-16T10:54:19;3.95;;;1.60;;
15002;SDS011;7597;53.590;10.020;2022-10-16T10:56:50;2.53;;;1.35;;
15002;SDS011;7597;53.590;10.020;2022-10-16T11:02:23;3.03;;;1.50;;
15002;SDS011;7597;53.590;10.020;2022-10-16T11:07:58;2.75;;;1.55;;
15002;SDS011;7597;53.590;10.020;2022-10-16T11:10:26;3.17;;;1.60;;
15002;SDS011;7597;53.590;10.020;2022-10-16T11:12:52;3.53;;;1.80;;
15002;SDS011;7597;53.590;10.020;2022-10-16T11:15:19;5.87;;;1.70;;
15002;SDS011;7597;53.590;10.020;2022-10-16T11:17:47;2.53;;;1.40;;
15002;SDS011;7597;53.590;10.020;2022-10-16T11:20:23;3.47;;;1.50;;
15002;SDS011;7597;53.590;10.020;2022-10-16T11:22:53;3.25;;;1.60;;
15002;SDS011;7597;53.590;10.020;2022-10-16T11:25:29;6.10;;;1.80;;
15002;SDS011;7597;53.590;10.020;2022-10-16T11:30:43;3.42;;;1.70;;
15002;SDS011;7597;53.590;10.020;2022-10-16T11:33:19;1.95;;;1.37;;
15002;SDS011;7597;53.590;10.020;2022-10-16T11:35:43;3.78;;;1.40;;
15002;SDS011;7597;53.590;10.020;2022-10-16T11:38:14;2.17;;;1.42;;
15002;SDS011;7597;53.590;10.020;2022-10-16T11:40:38;4.78;;;1.40;;
15002;SDS011;7597;53.590;10.020;2022-10-16T11:45:39;3.10;;;1.23;;
15002;SDS011;7597;53.590;10.020;2022-10-16T11:48:14;3.25;;;1.37;;
15002;SDS011;7597;53.590;10.020;2022-10-16T11:50:43;3.83;;;1.15;;
15002;SDS011;7597;53.590;10.020;2022-10-16T11:53:13;2.65;;;1.10;;
15002;SDS011;7597;53.590;10.020;2022-10-16T11:55:39;3.62;;;1.60;;
15002;SDS011;7597;53.590;10.020;2022-10-16T11:58:08;1.80;;;1.02;;
15002;SDS011;7597;53.590;10.020;2022-10-16T12:00:40;3.97;;;1.48;;
15002;SDS011;7597;53.590;10.020;2022-10-16T12:03:20;3.55;;;1.40;;
15002;SDS011;7597;53.590;10.020;2022-10-16T12:05:53;3.55;;;1.10;;
15002;SDS011;7597;53.590;10.020;2022-10-16T12:08:20;2.83;;;1.35;;
15002;SDS011;7597;53.590;10.020;2022-10-16T12:10:47;2.62;;;1.30;;
15002;SDS011;7597;53.590;10.020;2022-10-16T12:15:52;6.55;;;1.48;;
15002;SDS011;7597;53.590;10.020;2022-10-16T12:18:22;4.28;;;1.42;;
15002;SDS011;7597;53.590;10.020;2022-10-16T12:20:54;5.82;;;1.70;;
15002;SDS011;7597;53.590;10.020;2022-10-16T12:23:23;3.00;;;1.40;;
15002;SDS011;7597;53.590;10.020;2022-10-16T12:25:54;3.28;;;1.48;;
15002;SDS011;7597;53.590;10.020;2022-10-16T12:28:21;4.12;;;1.40;;
15002;SDS011;7597;53.590;10.020;2022-10-16T12:30:54;3.12;;;1.48;;
15002;SDS011;7597;53.590;10.020;2022-10-16T12:33:21;3.28;;;1.37;;
15002;SDS011;7597;53.590;10.020;2022-10-16T12:35:48;3.80;;;1.60;;
15002;SDS011;7597;53.590;10.020;2022-10-16T12:38:17;5.43;;;1.65;;
15002;SDS011;7597;53.590;10.020;2022-10-16T12:40:43;4.18;;;1.50;;
15002;SDS011;7597;53.590;10.020;2022-10-16T12:43:11;3.53;;;1.48;;
15002;SDS011;7597;53.590;10.020;2022-10-16T12:45:38;3.30;;;1.80;;
15002;SDS011;7597;53.590;10.020;2022-10-16T12:48:18;2.50;;;1.35;;
15002;SDS011;7597;53.590;10.020;2022-10-16T12:50:34;4.82;;;1.30;;
15002;SDS011;7597;53.590;10.020;2022-10-16T12:53:01;3.55;;;1.50;;
15002;SDS011;7597;53.590;10.020;2022-10-16T12:55:27;3.37;;;1.30;;
15002;SDS011;7597;53.590;10.020;2022-10-16T12:57:59;3.75;;;1.37;;
15002;SDS011;7597;53.590;10.020;2022-10-16T13:00:40;2.30;;;1.37;;
15002;SDS011;7597;53.590;10.020;2022-10-16T13:03:18;5.03;;;1.40;;
15002;SDS011;7597;53.590;10.020;2022-10-16T13:11:16;3.53;;;1.45;;
15002;SDS011;7597;53.590;10.020;2022-10-16T13:14:35;3.53;;;1.40;;
15002;SDS011;7597;53.590;10.020;2022-10-16T13:19:46;3.62;;;1.62;;
15002;SDS011;7597;53.590;10.020;2022-10-16T13:25:01;2.33;;;1.20;;
15002;SDS011;7597;53.590;10.020;2022-10-16T13:27:40;2.40;;;1.30;;
15002;SDS011;7597;53.590;10.020;2022-10-16T13:30:13;4.53;;;1.23;;
15002;SDS011;7597;53.590;10.020;2022-10-16T13:32:40;3.65;;;1.50;;
15002;SDS011;7597;53.590;10.020;2022-10-16T13:37:44;3.83;;;1.50;;
15002;SDS011;7597;53.590;10.020;2022-10-16T13:40:17;3.55;;;1.42;;
15002;SDS011;7597;53.590;10.020;2022-10-16T13:42:43;5.80;;;1.85;;
15002;SDS011;7597;53.590;10.020;2022-10-16T13:47:43;5.60;;;1.42;;
15002;SDS011;7597;53.590;10.020;2022-10-16T13:50:12;3.20;;;1.30;;
15002;SDS011;7597;53.590;10.020;2022-10-16T13:52:38;3.47;;;1.70;;
15002;SDS011;7597;53.590;10.020;2022-10-16T13:55:12;3.53;;;1.50;;
15002;SDS011;7597;53.590;10.020;2022-10-16T13:57:40;4.53;;;1.83;;
15002;SDS011;7597;53.590;10.020;2022-10-16T14:00:22;2.90;;;1.25;;
15002;SDS011;7597;53.590;10.020;2022-10-16T14:02:52;4.20;;;1.42;;
15002;SDS011;7597;53.590;10.020;2022-10-16T14:05:18;4.47;;;1.65;;
15002;SDS011;7597;53.590;10.020;2022-10-16T14:07:47;3.75;;;1.52;;
15002;SDS011;7597;53.590;10.020;2022-10-16T14:12:44;4.10;;;1.85;;
15002;SDS011;7597;53.590;10.020;2022-10-16T14:15:15;2.97;;;1.50;;
15002;SDS011;7597;53.590;10.020;2022-10-16T14:17:43;3.33;;;1.65;;
15002;SDS011;7597;53.590;10.020;2022-10-16T14:20:12;6.93;;;1.83;;
15002;SDS011;7597;53.590;10.020;2022-10-16T14:22:36;3.47;;;1.80;;
15002;SDS011;7597;53.590;10.020;2022-10-16T14:25:15;4.03;;;1.65;;
15002;SDS011;7597;53.590;10.020;2022-10-16T14:27:32;4.28;;;1.42;;
15002;SDS011;7597;53.590;10.020;2022-10-16T14:30:08;2.17;;;1.40;;
15002;SDS011;7597;53.590;10.020;2022-10-16T14:35:25;3.85;;;2.05;;
15002;SDS011;7597;53.590;10.020;2022-10-16T14:37:54;4.70;;;1.70;;
15002;SDS011;7597;53.590;10.020;2022-10-16T14:40:20;4.43;;;1.50;;
15002;SDS011;7597;53.590;10.020;2022-10-16T14:42:46;2.78;;;1.73;;
15002;SDS011;7597;53.590;10.020;2022-10-16T14:45:15;4.03;;;1.50;;
15002;SDS011;7597;53.590;10.020;2022-10-16T14:47:46;4.62;;;1.50;;
15002;SDS011;7597;53.590;10.020;2022-10-16T14:50:07;4.85;;;1.92;;
15002;SDS011;7597;53.590;10.020;2022-10-16T14:52:33;2.70;;;1.92;;
15002;SDS011;7597;53.590;10.020;2022-10-16T14:55:00;3.20;;;1.37;;
15002;SDS011;7597;53.590;10.020;2022-10-16T14:57:27;5.85;;;2.85;;
15002;SDS011;7597;53.590;10.020;2022-10-16T14:59:54;2.35;;;1.30;;
15002;SDS011;7597;53.590;10.020;2022-10-16T15:02:24;3.85;;;1.83;;
15002;SDS011;7597;53.590;10.020;2022-10-16T15:04:49;4.35;;;1.95;;
15002;SDS011;7597;53.590;10.020;2022-10-16T15:07:16;5.30;;;1.65;;
15002;SDS011;7597;53.590;10.020;2022-10-16T15:09:42;4.75;;;1.77;;
15002;SDS011;7597;53.590;10.020;2022-10-16T15:12:09;4.05;;;1.45;;
15002;SDS011;7597;53.590;10.020;2022-10-16T15:14:36;4.03;;;1.60;;
15002;SDS011;7597;53.590;10.020;2022-10-16T15:17:02;4.40;;;1.80;;
15002;SDS011;7597;53.590;10.020;2022-10-16T15:19:29;6.40;;;1.60;;
15002;SDS011;7597;53.590;10.020;2022-10-16T15:21:56;4.35;;;1.48;;
15002;SDS011;7597;53.590;10.020;2022-10-16T15:24:23;4.50;;;1.77;;
15002;SDS011;7597;53.590;10.020;2022-10-16T15:26:49;3.42;;;1.77;;
15002;SDS011;7597;53.590;10.020;2022-10-16T15:29:16;3.85;;;1.40;;
15002;SDS011;7597;53.590;10.020;2022-10-16T15:31:43;3.42;;;1.52;;
15002;SDS011;7597;53.590;10.020;2022-10-16T15:34:11;6.78;;;1.60;;
15002;SDS011;7597;53.590;10.020;2022-10-16T15:36:39;4.93;;;1.80;;
15002;SDS011;7597;53.590;10.020;2022-10-16T15:41:39;5.50;;;2.00;;
15002;SDS011;7597;53.590;10.020;2022-10-16T15:44:05;4.53;;;1.80;;
15002;SDS011;7597;53.590;10.020;2022-10-16T15:46:33;3.33;;;1.83;;
15002;SDS011;7597;53.590;10.020;2022-10-16T15:49:00;4.03;;;1.83;;
15002;SDS011;7597;53.590;10.020;2022-10-16T15:51:27;2.65;;;1.60;;
15002;SDS011;7597;53.590;10.020;2022-10-16T15:53:56;5.72;;;1.98;;